Time;durP1;ratioP1;P1;durP2;ratioP2;P2;SDS_P1;SDS_P2;PMS_P1;PMS_P2;Temp;Humidity;BMP_temperature;BMP_pressure;BME280_temperature;BME280_humidity;BME280_pressure;Samples;Min_cycle;Max_cycle;Signal;HPM_P1;HPM_P2
2023/04/19 00:00:38;;;;;;;10.70;9.60;;;11.80;98.00;;;;;;6241884;22;20008;-73
2023/04/19 00:03:05;;;;;;;11.88;10.73;;;11.70;98.10;;;;;;6242133;22;20369;-73
2023/04/19 00:05:31;;;;;;;13.52;11.15;;;11.80;98.20;;;;;;6241747;22;20430;-73
2023/04/19 00:07:57;;;;;;;11.70;10.48;;;11.70;98.30;;;;;;6241603;22;20070;-73
2023/04/19 00:10:23;;;;;;;12.93;11.52;;;11.70;98.40;;;;;;6240270;22;20434;-73
2023/04/19 00:12:48;;;;;;;13.25;11.30;;;11.80;98.60;;;;;;6241663;23;20000;-73
2023/04/19 00:15:14;;;;;;;15.18;11.88;;;11.70;98.70;;;;;;6240218;23;20374;-73
2023/04/19 00:17:40;;;;;;;16.17;12.13;;;11.70;98.80;;;;;;6242757;23;20004;-74
2023/04/19 00:20:07;;;;;;;12.38;11.07;;;11.80;98.90;;;;;;6242448;22;20046;-73
2023/04/19 00:22:33;;;;;;;13.02;11.73;;;11.70;98.90;;;;;;6243190;22;20000;-74
2023/04/19 00:24:58;;;;;;;12.65;11.35;;;11.70;99.00;;;;;;6244100;22;20036;-73
2023/04/19 00:27:24;;;;;;;13.32;11.88;;;11.70;99.10;;;;;;6243618;23;20050;-73
2023/04/19 00:29:50;;;;;;;13.80;12.40;;;11.70;99.30;;;;;;6244024;22;20000;-74
2023/04/19 00:32:16;;;;;;;13.07;11.60;;;11.70;99.40;;;;;;6243461;23;20012;-73
2023/04/19 00:34:41;;;;;;;15.60;12.23;;;11.60;99.50;;;;;;6243805;23;20000;-73
2023/04/19 00:37:08;;;;;;;12.75;10.85;;;11.60;99.70;;;;;;6243431;23;20010;-73
2023/04/19 00:39:34;;;;;;;14.20;11.65;;;11.50;99.80;;;;;;6243358;22;20000;-74
2023/04/19 00:42:00;;;;;;;15.40;11.13;;;11.50;99.90;;;;;;6244114;23;20055;-73
2023/04/19 00:44:26;;;;;;;15.05;11.98;;;11.40;99.90;;;;;;6241595;23;20038;-73
2023/04/19 00:46:52;;;;;;;14.48;11.52;;;11.40;99.90;;;;;;6244089;23;20414;-74
2023/04/19 00:49:19;;;;;;;14.43;11.40;;;11.30;99.90;;;;;;6242701;22;20011;-73
2023/04/19 00:51:46;;;;;;;14.02;12.10;;;11.30;99.90;;;;;;6243962;22;20005;-73
2023/04/19 00:54:13;;;;;;;14.45;12.95;;;11.30;99.90;;;;;;6243395;22;20004;-74
2023/04/19 00:56:39;;;;;;;13.23;11.77;;;11.20;99.90;;;;;;6243777;22;19996;-73
2023/04/19 00:59:06;;;;;;;16.15;12.50;;;11.20;99.90;;;;;;6243670;22;20000;-74
2023/04/19 01:01:32;;;;;;;14.25;12.45;;;11.10;99.90;;;;;;6243470;22;20801;-74
2023/04/19 01:04:00;;;;;;;13.98;12.52;;;11.10;99.90;;;;;;6243037;22;20015;-73
2023/04/19 01:06:28;;;;;;;14.52;11.75;;;11.20;99.90;;;;;;6243170;22;20050;-73
2023/04/19 01:08:55;;;;;;;13.00;11.25;;;11.10;99.90;;;;;;6243641;23;20365;-73
2023/04/19 01:11:22;;;;;;;14.68;12.10;;;11.10;99.90;;;;;;6243331;22;20350;-74
2023/04/19 01:13:48;;;;;;;16.45;13.02;;;11.10;99.90;;;;;;6243597;22;20012;-74
2023/04/19 01:16:13;;;;;;;13.30;11.98;;;11.10;99.90;;;;;;6243106;23;20004;-73
2023/04/19 01:18:39;;;;;;;18.65;13.50;;;11.00;99.90;;;;;;6243199;22;20000;-74
2023/04/19 01:21:06;;;;;;;16.02;14.00;;;11.00;99.90;;;;;;6243645;22;20410;-74
2023/04/19 01:23:32;;;;;;;15.18;12.98;;;11.00;99.90;;;;;;6242919;22;20403;-73
2023/04/19 01:25:57;;;;;;;15.13;13.02;;;10.90;99.90;;;;;;6243560;23;20039;-74
2023/04/19 01:28:23;;;;;;;13.98;12.57;;;10.90;99.90;;;;;;6242673;23;20004;-74
2023/04/19 01:30:52;;;;;;;15.98;12.70;;;10.80;99.90;;;;;;6243071;23;19996;-74
2023/04/19 01:33:19;;;;;;;14.20;12.73;;;10.90;99.90;;;;;;6242334;22;20388;-75
2023/04/19 01:35:45;;;;;;;15.63;12.50;;;10.80;99.90;;;;;;6243750;22;20318;-75
2023/04/19 01:38:11;;;;;;;14.40;12.90;;;10.80;99.90;;;;;;6243177;22;20086;-75
2023/04/19 01:40:36;;;;;;;17.25;14.45;;;10.80;99.90;;;;;;6243351;23;20606;-75
2023/04/19 01:43:02;;;;;;;15.27;13.70;;;10.80;99.90;;;;;;6243125;23;20008;-74
2023/04/19 01:45:27;;;;;;;16.38;13.05;;;10.80;99.90;;;;;;6242837;23;20007;-75
2023/04/19 01:47:54;;;;;;;13.00;11.52;;;10.80;99.90;;;;;;6242862;23;19997;-75
2023/04/19 01:50:20;;;;;;;15.07;12.98;;;10.70;99.90;;;;;;6242995;22;20075;-75
2023/04/19 01:52:46;;;;;;;14.48;13.02;;;10.70;99.90;;;;;;6243134;23;20024;-74
2023/04/19 01:55:11;;;;;;;15.98;12.77;;;10.70;99.90;;;;;;6243010;23;20000;-75
2023/04/19 01:57:37;;;;;;;15.57;13.15;;;10.70;99.90;;;;;;6243207;23;20434;-75
2023/04/19 02:00:03;;;;;;;14.70;13.05;;;10.60;99.90;;;;;;6243145;23;20477;-75
2023/04/19 02:02:28;;;;;;;17.00;12.60;;;10.60;99.90;;;;;;6242032;22;20323;-74
2023/04/19 02:04:54;;;;;;;15.00;13.07;;;10.60;99.90;;;;;;6243139;23;20326;-75
2023/04/19 02:07:19;;;;;;;12.65;11.35;;;10.60;99.90;;;;;;6242517;23;19996;-75
2023/04/19 02:09:45;;;;;;;14.27;12.52;;;10.50;99.90;;;;;;6242987;23;20027;-75
2023/04/19 02:12:10;;;;;;;12.75;11.23;;;10.50;99.90;;;;;;6241156;23;20082;-75
2023/04/19 02:14:36;;;;;;;15.90;11.68;;;10.50;99.90;;;;;;6241183;23;20004;-75
2023/04/19 02:17:02;;;;;;;15.35;12.30;;;10.50;99.90;;;;;;6242588;23;20004;-75
2023/04/19 02:19:27;;;;;;;14.20;12.02;;;10.50;99.90;;;;;;6242543;23;20008;-75
2023/04/19 02:21:56;;;;;;;14.70;12.05;;;10.50;99.90;;;;;;6242988;23;19996;-75
2023/04/19 02:24:24;;;;;;;14.48;11.35;;;10.40;99.90;;;;;;6240754;23;20012;-75
2023/04/19 02:26:50;;;;;;;14.48;11.57;;;10.40;99.90;;;;;;6242972;22;20414;-75
2023/04/19 02:29:16;;;;;;;14.95;11.45;;;10.40;99.90;;;;;;6242401;23;19996;-75
2023/04/19 02:31:44;;;;;;;14.05;12.02;;;10.40;99.90;;;;;;6242046;23;20013;-75
2023/04/19 02:34:09;;;;;;;14.32;10.82;;;10.40;99.90;;;;;;6242875;22;20007;-75
2023/04/19 02:36:35;;;;;;;15.00;11.30;;;10.30;99.90;;;;;;6242386;22;20004;-75
2023/04/19 02:39:00;;;;;;;12.02;10.48;;;10.30;99.90;;;;;;6243055;23;20000;-75
2023/04/19 02:41:26;;;;;;;16.13;11.30;;;10.40;99.90;;;;;;6240130;23;20052;-75
2023/04/19 02:43:51;;;;;;;13.35;11.27;;;10.40;99.90;;;;;;6242624;23;20010;-75
2023/04/19 02:46:17;;;;;;;13.13;11.73;;;10.50;99.90;;;;;;6241545;23;20001;-75
2023/04/19 02:48:42;;;;;;;12.48;10.23;;;10.60;99.90;;;;;;6241271;23;20000;-74
2023/04/19 02:51:14;;;;;;;13.90;12.40;;;10.60;99.90;;;;;;6242691;23;20003;-74
2023/04/19 02:53:40;;;;;;;12.68;11.32;;;10.70;99.90;;;;;;6242832;22;20014;-74
2023/04/19 02:56:06;;;;;;;11.50;10.30;;;10.70;99.90;;;;;;6242378;23;20385;-73
2023/04/19 02:58:32;;;;;;;11.77;10.57;;;10.70;99.90;;;;;;6242215;22;20007;-74
2023/04/19 03:00:57;;;;;;;12.48;10.77;;;10.70;99.90;;;;;;6242190;23;20380;-74
2023/04/19 03:03:23;;;;;;;12.15;10.85;;;10.70;99.90;;;;;;6242085;23;20026;-74
2023/04/19 03:05:48;;;;;;;14.75;11.73;;;10.80;99.90;;;;;;6242557;23;20010;-74
2023/04/19 03:08:14;;;;;;;16.08;11.32;;;10.80;99.90;;;;;;6242197;23;20030;-74
2023/04/19 03:10:39;;;;;;;11.82;10.35;;;10.80;99.90;;;;;;6242431;23;20422;-74
2023/04/19 03:13:05;;;;;;;13.00;10.60;;;10.80;99.90;;;;;;6242605;23;20003;-74
2023/04/19 03:15:31;;;;;;;11.75;9.77;;;10.80;99.90;;;;;;6239685;23;20016;-74
2023/04/19 03:17:56;;;;;;;12.25;10.07;;;10.80;99.90;;;;;;6242669;23;19997;-74
2023/04/19 03:20:22;;;;;;;10.38;9.15;;;10.90;99.90;;;;;;6241554;23;20151;-74
2023/04/19 03:22:48;;;;;;;11.43;10.23;;;10.90;99.90;;;;;;6242654;23;20068;-74
2023/04/19 03:25:13;;;;;;;12.63;11.02;;;10.90;99.90;;;;;;6241905;22;20000;-74
2023/04/19 03:27:39;;;;;;;11.02;9.90;;;10.90;99.90;;;;;;6242398;23;20007;-74
2023/04/19 03:30:05;;;;;;;11.38;9.52;;;10.90;99.90;;;;;;6241601;23;20054;-74
2023/04/19 03:32:31;;;;;;;11.43;8.57;;;10.90;99.90;;;;;;6241951;22;20016;-74
2023/04/19 03:34:57;;;;;;;9.68;8.25;;;10.90;99.90;;;;;;6242054;23;20083;-74
2023/04/19 03:37:22;;;;;;;12.40;8.85;;;10.90;99.90;;;;;;6241576;23;20015;-73
2023/04/19 03:39:48;;;;;;;10.52;9.52;;;10.90;99.90;;;;;;6242355;23;20015;-74
2023/04/19 03:42:13;;;;;;;15.68;9.55;;;10.90;99.90;;;;;;6241936;23;20000;-73
2023/04/19 03:44:39;;;;;;;10.82;9.02;;;10.90;99.90;;;;;;6240987;23;20004;-74
2023/04/19 03:47:04;;;;;;;11.75;8.20;;;10.90;99.90;;;;;;6240845;23;20036;-74
2023/04/19 03:49:30;;;;;;;10.63;7.88;;;11.00;99.90;;;;;;6241811;23;20008;-75
2023/04/19 03:51:55;;;;;;;11.10;8.32;;;10.90;99.90;;;;;;6242877;22;20023;-75
2023/04/19 03:54:21;;;;;;;10.80;7.32;;;11.00;99.90;;;;;;6243918;23;20077;-74
2023/04/19 03:56:47;;;;;;;11.30;8.80;;;10.90;99.90;;;;;;6244114;23;20007;-73
2023/04/19 03:59:12;;;;;;;9.38;8.32;;;10.90;99.90;;;;;;6241882;23;20013;-74
2023/04/19 04:01:40;;;;;;;11.60;8.18;;;10.90;99.90;;;;;;6242468;23;20131;-74
2023/04/19 04:04:07;;;;;;;11.18;8.60;;;10.90;99.90;;;;;;6242560;22;20012;-73
2023/04/19 04:06:33;;;;;;;9.73;7.78;;;10.90;99.90;;;;;;6243298;22;20326;-74
2023/04/19 04:08:59;;;;;;;10.65;8.60;;;10.80;99.90;;;;;;6244280;22;19996;-74
2023/04/19 04:11:25;;;;;;;11.80;8.55;;;10.80;99.90;;;;;;6243619;22;20001;-74
2023/04/19 04:13:50;;;;;;;8.25;7.43;;;10.70;99.90;;;;;;6243676;23;20004;-74
2023/04/19 04:16:16;;;;;;;11.23;8.10;;;10.60;99.90;;;;;;6243796;23;20069;-74
2023/04/19 04:18:42;;;;;;;9.80;7.72;;;10.60;99.90;;;;;;6244312;22;20042;-75
2023/04/19 04:21:07;;;;;;;10.27;7.65;;;10.50;99.90;;;;;;6243996;23;20008;-74
2023/04/19 04:23:33;;;;;;;9.45;7.75;;;10.40;99.90;;;;;;6243582;23;20008;-75
2023/04/19 04:26:00;;;;;;;9.75;7.75;;;10.40;99.90;;;;;;6243789;23;20004;-74
2023/04/19 04:28:28;;;;;;;11.07;8.27;;;10.30;99.90;;;;;;6243059;22;20077;-74
2023/04/19 04:30:59;;;;;;;8.75;7.82;;;10.30;99.90;;;;;;6243971;23;20048;-75
2023/04/19 04:33:25;;;;;;;10.13;7.97;;;10.30;99.90;;;;;;6243346;22;20023;-74
2023/04/19 04:35:52;;;;;;;10.18;7.18;;;10.20;99.90;;;;;;6244214;22;20333;-74
2023/04/19 04:38:20;;;;;;;9.70;8.18;;;10.20;99.90;;;;;;6243260;22;20081;-74
2023/04/19 04:40:52;;;;;;;13.57;7.68;;;10.10;99.90;;;;;;6243781;22;20330;-74
2023/04/19 04:43:19;;;;;;;8.55;7.03;;;10.10;99.90;;;;;;6242830;22;20018;-74
2023/04/19 04:45:45;;;;;;;10.30;7.32;;;10.10;99.90;;;;;;6243978;22;19996;-74
2023/04/19 04:48:11;;;;;;;8.77;7.38;;;10.10;99.90;;;;;;6243689;23;20030;-74
2023/04/19 04:50:36;;;;;;;9.73;7.43;;;10.10;99.90;;;;;;6243665;23;20073;-73
2023/04/19 04:53:02;;;;;;;8.57;7.53;;;10.10;99.90;;;;;;6242084;23;20034;-75
2023/04/19 04:55:27;;;;;;;10.98;8.15;;;10.00;99.90;;;;;;6243174;23;20004;-74
2023/04/19 04:57:53;;;;;;;10.63;7.38;;;10.00;99.90;;;;;;6243260;23;20043;-75
2023/04/19 05:00:18;;;;;;;9.20;7.47;;;10.00;99.90;;;;;;6243107;23;19996;-74
2023/04/19 05:02:44;;;;;;;8.38;7.20;;;10.00;99.90;;;;;;6242510;23;20059;-74
2023/04/19 05:05:10;;;;;;;8.57;6.90;;;10.00;99.90;;;;;;6243008;23;20055;-74
2023/04/19 05:07:35;;;;;;;7.80;6.60;;;9.90;99.90;;;;;;6243270;23;20449;-74
2023/04/19 05:10:01;;;;;;;8.02;6.30;;;9.90;99.90;;;;;;6243306;23;20000;-74
2023/04/19 05:12:26;;;;;;;7.70;6.70;;;9.90;99.90;;;;;;6242427;23;19996;-74
2023/04/19 05:14:52;;;;;;;8.20;6.55;;;9.90;99.90;;;;;;6243352;23;20004;-74
2023/04/19 05:17:18;;;;;;;8.48;6.28;;;9.90;99.90;;;;;;6243208;23;20066;-74
2023/04/19 05:19:43;;;;;;;9.93;6.85;;;9.90;99.90;;;;;;6242061;23;20030;-73
2023/04/19 05:22:09;;;;;;;9.05;7.25;;;9.90;99.90;;;;;;6241965;23;20065;-75
2023/04/19 05:24:34;;;;;;;10.98;7.20;;;9.90;99.90;;;;;;6241306;23;20079;-75
2023/04/19 05:27:00;;;;;;;9.60;7.97;;;9.90;99.90;;;;;;6242651;23;20071;-75
2023/04/19 05:29:26;;;;;;;9.98;7.18;;;9.90;99.90;;;;;;6241292;23;20000;-75
2023/04/19 05:31:51;;;;;;;9.50;6.88;;;9.90;99.90;;;;;;6243237;23;20016;-75
2023/04/19 05:34:17;;;;;;;8.38;7.47;;;9.90;99.90;;;;;;6241391;23;20016;-75
2023/04/19 05:36:42;;;;;;;8.32;6.78;;;9.90;99.90;;;;;;6241636;23;19996;-75
2023/04/19 05:39:08;;;;;;;8.60;6.77;;;9.80;99.90;;;;;;6243278;23;20051;-75
2023/04/19 05:41:33;;;;;;;10.00;6.57;;;9.80;99.90;;;;;;6242328;23;20027;-75
2023/04/19 05:43:59;;;;;;;10.57;6.82;;;9.90;99.80;;;;;;6243275;23;20004;-75
2023/04/19 05:46:25;;;;;;;7.60;6.80;;;9.90;99.60;;;;;;6242724;23;20343;-75
2023/04/19 05:48:50;;;;;;;9.32;7.72;;;9.90;99.60;;;;;;6243353;23;19997;-74
2023/04/19 05:51:17;;;;;;;10.30;6.78;;;9.90;99.30;;;;;;6242543;23;20006;-74
2023/04/19 05:53:44;;;;;;;7.80;7.00;;;9.90;99.10;;;;;;6243181;22;20000;-74
2023/04/19 05:56:10;;;;;;;8.48;6.15;;;10.00;98.80;;;;;;6242603;22;20010;-75
2023/04/19 05:58:36;;;;;;;8.98;6.43;;;9.90;98.80;;;;;;6241483;23;20091;-75
2023/04/19 06:01:01;;;;;;;8.35;5.93;;;10.00;98.70;;;;;;6241612;23;20000;-75
2023/04/19 06:03:27;;;;;;;8.05;6.53;;;10.00;98.60;;;;;;6242410;23;20075;-75
2023/04/19 06:05:53;;;;;;;8.98;7.60;;;9.90;98.40;;;;;;6241420;23;19996;-74
2023/04/19 06:08:18;;;;;;;7.82;6.22;;;9.90;97.90;;;;;;6240522;23;20079;-75
2023/04/19 06:10:46;;;;;;;8.93;6.55;;;9.90;97.30;;;;;;6242248;23;20051;-75
2023/04/19 06:13:12;;;;;;;8.02;6.07;;;9.90;97.10;;;;;;6242602;22;20050;-75
2023/04/19 06:15:41;;;;;;;8.40;6.65;;;9.90;96.90;;;;;;6242926;22;20067;-75
2023/04/19 06:18:09;;;;;;;7.53;5.97;;;9.90;96.50;;;;;;6243090;22;20031;-75
2023/04/19 06:20:38;;;;;;;7.50;6.38;;;9.80;96.00;;;;;;6240841;23;20000;-75
2023/04/19 06:23:05;;;;;;;8.07;5.93;;;9.90;95.90;;;;;;6242221;23;20006;-75
2023/04/19 06:25:31;;;;;;;10.68;7.00;;;9.90;95.70;;;;;;6242634;22;20004;-75
2023/04/19 06:27:56;;;;;;;10.00;6.50;;;9.90;95.60;;;;;;6243090;22;20042;-76
2023/04/19 06:30:22;;;;;;;7.38;6.00;;;9.90;95.30;;;;;;6242055;23;20478;-76
2023/04/19 06:32:47;;;;;;;10.13;5.95;;;9.90;94.70;;;;;;6242501;23;20024;-75
2023/04/19 06:35:14;;;;;;;7.65;5.90;;;10.00;94.60;;;;;;6241463;23;20102;-76
2023/04/19 06:37:39;;;;;;;7.85;5.10;;;10.00;94.40;;;;;;6241253;22;20003;-77
2023/04/19 06:40:07;;;;;;;6.17;5.57;;;10.10;93.90;;;;;;6241926;23;20004;-76
2023/04/19 06:42:33;;;;;;;7.28;6.15;;;10.10;93.80;;;;;;6240619;23;20083;-76
2023/04/19 06:44:58;;;;;;;8.43;5.10;;;10.20;93.90;;;;;;6242722;22;20004;-75
2023/04/19 06:47:24;;;;;;;9.18;5.63;;;10.30;93.50;;;;;;6242383;23;20042;-76
2023/04/19 06:49:49;;;;;;;5.82;5.18;;;10.40;93.00;;;;;;6242872;23;20552;-76
2023/04/19 06:52:15;;;;;;;7.07;5.43;;;10.40;92.80;;;;;;6241731;23;20003;-75
2023/04/19 06:54:40;;;;;;;6.65;5.70;;;10.50;92.40;;;;;;6242453;23;20299;-75
2023/04/19 06:57:06;;;;;;;9.70;6.30;;;10.50;91.90;;;;;;6242353;23;20000;-75
2023/04/19 06:59:32;;;;;;;7.80;4.78;;;10.60;91.40;;;;;;6242051;23;20319;-76
2023/04/19 07:01:58;;;;;;;6.60;4.82;;;10.60;90.10;;;;;;6242477;22;20014;-76
2023/04/19 07:04:25;;;;;;;8.93;4.53;;;10.60;90.10;;;;;;6240599;23;20004;-76
2023/04/19 07:06:50;;;;;;;7.82;5.10;;;10.60;89.70;;;;;;6240791;22;20004;-76
2023/04/19 07:09:16;;;;;;;7.25;5.22;;;10.60;89.30;;;;;;6241831;23;20415;-76
2023/04/19 07:11:41;;;;;;;6.20;4.80;;;10.70;88.10;;;;;;6242017;23;20031;-76
2023/04/19 07:14:07;;;;;;;6.30;4.55;;;10.70;87.50;;;;;;6242058;23;20008;-76
2023/04/19 07:16:33;;;;;;;5.00;3.83;;;10.70;86.40;;;;;;6240337;23;20002;-76
2023/04/19 07:18:58;;;;;;;4.82;3.65;;;10.80;85.50;;;;;;6239884;23;20018;-76
2023/04/19 07:21:27;;;;;;;4.03;3.42;;;10.80;84.30;;;;;;6239367;23;20020;-76
2023/04/19 07:23:53;;;;;;;6.13;4.13;;;10.80;84.90;;;;;;6240240;23;20008;-76
2023/04/19 07:26:18;;;;;;;5.18;3.95;;;10.90;84.60;;;;;;6239924;23;20055;-76
2023/04/19 07:28:44;;;;;;;4.32;3.70;;;10.90;84.20;;;;;;6241771;23;20005;-76
2023/04/19 07:31:17;;;;;;;5.45;3.80;;;11.00;83.60;;;;;;6241980;23;19996;-76
2023/04/19 07:33:43;;;;;;;4.18;2.92;;;11.10;82.90;;;;;;6242224;22;20008;-76
2023/04/19 07:36:09;;;;;;;8.10;3.53;;;11.10;82.80;;;;;;6241748;22;20341;-76
2023/04/19 07:38:35;;;;;;;6.97;2.92;;;11.20;81.20;;;;;;6241359;23;20000;-75
2023/04/19 07:41:02;;;;;;;6.05;3.28;;;11.20;79.20;;;;;;6241928;22;20034;-75
2023/04/19 07:43:29;;;;;;;4.95;3.30;;;11.10;79.70;;;;;;6239318;23;20012;-75
2023/04/19 07:45:54;;;;;;;5.90;3.35;;;11.10;80.00;;;;;;6240092;23;20007;-75
2023/04/19 07:48:20;;;;;;;11.52;3.90;;;11.20;80.80;;;;;;6241380;22;20000;-76
2023/04/19 07:50:46;;;;;;;4.40;2.92;;;11.20;78.40;;;;;;6240025;23;20000;-75
2023/04/19 07:53:11;;;;;;;5.88;3.55;;;11.20;78.40;;;;;;6241427;23;20000;-76
2023/04/19 07:55:37;;;;;;;5.70;3.80;;;11.20;78.20;;;;;;6240108;23;20010;-75
2023/04/19 07:58:02;;;;;;;12.02;3.28;;;11.30;77.80;;;;;;6241821;23;20095;-74
2023/04/19 08:00:33;;;;;;;7.60;3.22;;;11.30;77.20;;;;;;6241338;23;20367;-74
2023/04/19 08:02:59;;;;;;;4.85;3.47;;;11.30;77.10;;;;;;6241848;22;20035;-74
2023/04/19 08:05:25;;;;;;;9.10;3.65;;;11.40;77.10;;;;;;6240683;23;20322;-75
2023/04/19 08:07:52;;;;;;;6.00;2.90;;;11.40;75.80;;;;;;6241987;22;20024;-75
2023/04/19 08:10:18;;;;;;;3.45;2.60;;;11.40;75.50;;;;;;6241499;22;20000;-75
2023/04/19 08:12:44;;;;;;;5.82;2.45;;;11.40;75.90;;;;;;6241578;22;20000;-75
2023/04/19 08:15:09;;;;;;;4.00;2.72;;;11.50;76.00;;;;;;6241740;23;20015;-75
2023/04/19 08:17:35;;;;;;;2.60;2.40;;;11.60;75.90;;;;;;6239708;23;20000;-74
2023/04/19 08:20:05;;;;;;;4.32;3.10;;;11.70;75.90;;;;;;6241687;23;20039;-75
2023/04/19 08:22:31;;;;;;;5.05;2.42;;;11.70;75.20;;;;;;6240093;23;20015;-75
2023/04/19 08:24:56;;;;;;;4.95;2.42;;;11.80;75.00;;;;;;6241671;23;20004;-75
2023/04/19 08:27:22;;;;;;;4.13;2.58;;;11.80;75.00;;;;;;6241519;23;20342;-75
2023/04/19 08:29:48;;;;;;;5.47;2.75;;;12.00;75.30;;;;;;6241814;22;20110;-75
2023/04/19 08:32:13;;;;;;;3.08;1.92;;;12.10;75.00;;;;;;6239515;23;20387;-75
2023/04/19 08:34:39;;;;;;;4.97;2.40;;;12.10;75.00;;;;;;6239382;23;20008;-75
2023/04/19 08:37:06;;;;;;;3.00;1.98;;;12.20;73.30;;;;;;6241797;22;20028;-75
2023/04/19 08:39:32;;;;;;;3.08;2.13;;;12.20;73.10;;;;;;6240178;23;20008;-75
2023/04/19 08:42:02;;;;;;;3.17;1.65;;;12.20;73.10;;;;;;6243260;22;20008;-74
2023/04/19 08:44:30;;;;;;;2.20;1.60;;;12.20;72.50;;;;;;6241377;23;20094;-75
2023/04/19 08:46:57;;;;;;;3.63;1.77;;;12.20;72.00;;;;;;6243607;22;20020;-75
2023/04/19 08:49:23;;;;;;;4.28;1.45;;;12.10;72.10;;;;;;6242498;22;20008;-76
2023/04/19 08:51:50;;;;;;;3.35;1.42;;;12.10;71.20;;;;;;6243541;22;19996;-76
2023/04/19 08:54:17;;;;;;;2.13;1.52;;;12.10;70.00;;;;;;6243154;23;20000;-76
2023/04/19 08:56:42;;;;;;;2.80;1.25;;;12.00;69.80;;;;;;6243363;22;20011;-76
2023/04/19 08:59:08;;;;;;;3.25;1.40;;;12.00;69.90;;;;;;6243607;23;20008;-76
2023/04/19 09:01:33;;;;;;;3.78;1.17;;;12.00;70.40;;;;;;6242922;23;20008;-76
2023/04/19 09:03:59;;;;;;;5.50;1.02;;;12.00;69.80;;;;;;6242878;23;20326;-76
2023/04/19 09:06:26;;;;;;;2.45;1.10;;;12.00;70.10;;;;;;6243205;23;20437;-75
2023/04/19 09:08:57;;;;;;;3.47;1.40;;;12.00;69.00;;;;;;6243716;22;20007;-75
2023/04/19 09:11:36;;;;;;;4.40;1.10;;;12.10;68.40;;;;;;6242685;22;20007;-75
2023/04/19 09:14:13;;;;;;;2.75;0.93;;;12.10;68.90;;;;;;6243571;22;20004;-75
2023/04/19 09:16:39;;;;;;;2.00;1.08;;;12.10;69.20;;;;;;6243477;22;20004;-75
2023/04/19 09:19:05;;;;;;;4.88;1.50;;;12.10;68.70;;;;;;6241332;23;20110;-76
2023/04/19 09:21:32;;;;;;;3.38;1.20;;;12.20;68.30;;;;;;6242387;22;20139;-75
2023/04/19 09:23:59;;;;;;;2.42;1.55;;;12.20;69.00;;;;;;6243040;22;20027;-75
2023/04/19 09:26:28;;;;;;;2.55;1.77;;;12.20;68.80;;;;;;6242767;22;20066;-75
2023/04/19 09:29:03;;;;;;;3.72;1.30;;;12.20;68.80;;;;;;6243092;22;19996;-75
2023/04/19 09:31:30;;;;;;;3.65;1.33;;;12.30;68.60;;;;;;6241777;22;20023;-76
2023/04/19 09:33:55;;;;;;;3.33;1.20;;;12.30;69.00;;;;;;6241897;23;20031;-75
2023/04/19 09:36:31;;;;;;;2.42;1.45;;;12.40;68.00;;;;;;6240812;23;20004;-76
2023/04/19 09:38:58;;;;;;;2.95;1.70;;;12.40;67.60;;;;;;6243100;22;20003;-76
2023/04/19 09:41:25;;;;;;;1.88;1.23;;;12.40;68.40;;;;;;6242537;22;20000;-76
2023/04/19 09:43:51;;;;;;;3.25;1.45;;;12.40;68.70;;;;;;6243088;23;20004;-76
2023/04/19 09:46:34;;;;;;;3.53;1.48;;;12.50;69.10;;;;;;6241642;22;20000;-75
2023/04/19 09:49:19;;;;;;;3.38;1.58;;;12.60;69.20;;;;;;6242359;22;20484;-74
2023/04/19 09:51:50;;;;;;;1.63;1.17;;;12.60;68.20;;;;;;6242436;22;19996;-75
2023/04/19 09:54:19;;;;;;;2.67;1.38;;;12.60;68.60;;;;;;6242445;22;20315;-75
2023/04/19 09:56:44;;;;;;;2.10;1.50;;;12.70;68.50;;;;;;6240838;23;20047;-74
2023/04/19 09:59:11;;;;;;;1.88;1.50;;;12.80;68.60;;;;;;6242611;22;20004;-75
2023/04/19 10:01:44;;;;;;;2.92;1.48;;;12.80;68.20;;;;;;6242120;22;20054;-75
2023/04/19 10:04:11;;;;;;;2.53;1.48;;;12.80;68.30;;;;;;6242596;22;20004;-75
2023/04/19 10:06:38;;;;;;;2.38;1.65;;;12.90;68.40;;;;;;6242499;22;20003;-76
2023/04/19 10:09:05;;;;;;;7.05;1.65;;;12.90;68.10;;;;;;6241965;22;20003;-75
2023/04/19 10:11:37;;;;;;;2.65;1.45;;;13.00;67.90;;;;;;6241974;23;20015;-76
2023/04/19 10:14:05;;;;;;;3.10;1.23;;;13.00;68.20;;;;;;6242857;22;20036;-78
2023/04/19 10:16:32;;;;;;;4.88;2.13;;;13.10;67.40;;;;;;6241174;22;20015;-77
2023/04/19 10:18:58;;;;;;;4.65;1.38;;;13.00;67.00;;;;;;6240832;23;20012;-76
2023/04/19 10:21:26;;;;;;;3.70;1.38;;;13.00;66.00;;;;;;6241797;22;20007;-75
2023/04/19 10:23:53;;;;;;;2.75;2.15;;;13.00;67.20;;;;;;6242569;22;20057;-76
2023/04/19 10:26:19;;;;;;;1.70;1.17;;;13.10;67.20;;;;;;6241970;22;20000;-76
2023/04/19 10:28:47;;;;;;;2.78;1.38;;;13.20;67.20;;;;;;6242275;22;20027;-76
2023/04/19 10:31:13;;;;;;;4.15;1.70;;;13.40;67.10;;;;;;6240936;22;20000;-77
2023/04/19 10:33:39;;;;;;;2.95;2.28;;;13.40;66.00;;;;;;6242634;22;20031;-77
2023/04/19 10:36:08;;;;;;;2.92;2.20;;;13.40;65.60;;;;;;6242414;22;20007;-76
2023/04/19 10:38:48;;;;;;;2.95;1.65;;;13.40;64.60;;;;;;6241570;22;20383;-77
2023/04/19 10:41:18;;;;;;;5.15;2.05;;;13.40;64.30;;;;;;6241845;22;20433;-77
2023/04/19 10:43:44;;;;;;;4.82;2.03;;;13.50;64.00;;;;;;6240406;23;20451;-78
2023/04/19 10:46:36;;;;;;;3.28;1.50;;;13.50;63.30;;;;;;6241992;22;20006;-77
2023/04/19 10:49:03;;;;;;;3.40;1.85;;;13.50;63.80;;;;;;6241756;22;20121;-77
2023/04/19 10:51:37;;;;;;;4.97;2.22;;;13.60;63.70;;;;;;6241818;22;19996;-76
2023/04/19 10:54:07;;;;;;;3.10;1.27;;;13.60;61.50;;;;;;6242434;22;20008;-76
2023/04/19 10:56:33;;;;;;;6.68;2.15;;;13.50;62.20;;;;;;6242079;22;20031;-76
2023/04/19 10:59:01;;;;;;;2.70;1.70;;;13.50;62.50;;;;;;6241942;23;20000;-76
2023/04/19 11:01:50;;;;;;;5.70;1.98;;;13.50;63.30;;;;;;6240842;22;20038;-76
2023/04/19 11:04:18;;;;;;;2.60;1.75;;;13.60;63.30;;;;;;6242051;22;20493;-76
2023/04/19 11:06:52;;;;;;;2.38;1.88;;;13.60;63.10;;;;;;6239796;23;20000;-76
2023/04/19 11:09:26;;;;;;;2.78;1.70;;;13.60;62.90;;;;;;6242077;23;20042;-76
2023/04/19 11:11:52;;;;;;;3.47;2.10;;;13.60;61.90;;;;;;6242144;22;20007;-76
2023/04/19 11:14:20;;;;;;;2.63;2.03;;;13.60;62.00;;;;;;6241189;22;20004;-76
2023/04/19 11:16:46;;;;;;;2.22;1.80;;;13.70;62.70;;;;;;6241512;22;20322;-76
2023/04/19 11:19:18;;;;;;;5.18;1.70;;;13.80;61.50;;;;;;6239099;23;20004;-76
2023/04/19 11:21:45;;;;;;;4.45;1.63;;;13.80;61.10;;;;;;6242540;22;20000;-76
2023/04/19 11:24:11;;;;;;;2.45;1.55;;;13.90;60.90;;;;;;6240969;22;20035;-76
2023/04/19 11:26:37;;;;;;;2.67;1.90;;;13.90;58.80;;;;;;6241856;22;20000;-77
2023/04/19 11:29:05;;;;;;;2.33;1.38;;;13.90;57.90;;;;;;6239858;23;20087;-77
2023/04/19 11:31:34;;;;;;;2.88;1.67;;;13.90;57.40;;;;;;6239979;23;20031;-77
2023/04/19 11:34:01;;;;;;;4.07;1.75;;;13.90;56.60;;;;;;6242663;22;20418;-77
2023/04/19 11:36:27;;;;;;;2.67;2.10;;;13.90;56.80;;;;;;6241447;22;20446;-77
2023/04/19 11:38:53;;;;;;;3.10;1.95;;;14.00;53.20;;;;;;6240953;23;20027;-82
2023/04/19 11:41:18;;;;;;;3.38;1.95;;;13.90;52.20;;;;;;6241150;22;20103;-81
2023/04/19 11:43:45;;;;;;;4.22;1.75;;;13.90;52.80;;;;;;6241822;23;20012;-81
2023/04/19 11:46:12;;;;;;;3.17;1.80;;;13.90;52.70;;;;;;6240003;23;20004;-80
2023/04/19 11:48:38;;;;;;;4.03;1.90;;;14.00;53.00;;;;;;6242208;23;20008;-80
2023/04/19 11:51:04;;;;;;;2.33;1.88;;;14.00;53.40;;;;;;6241838;22;20032;-79
2023/04/19 11:53:31;;;;;;;2.03;1.73;;;14.10;53.00;;;;;;6239984;23;20745;-79
2023/04/19 11:56:04;;;;;;;4.47;1.90;;;14.20;53.90;;;;;;6241635;22;20026;-79
2023/04/19 11:58:36;;;;;;;3.10;1.65;;;14.20;54.50;;;;;;6240274;22;20418;-79
2023/04/19 12:01:06;;;;;;;2.55;1.90;;;14.40;54.40;;;;;;6240312;23;20039;-80
2023/04/19 12:03:33;;;;;;;2.50;2.30;;;14.40;54.10;;;;;;6241426;22;20082;-78
2023/04/19 12:06:02;;;;;;;4.30;1.83;;;14.40;54.10;;;;;;6241825;22;20004;-79
2023/04/19 12:08:35;;;;;;;5.45;2.95;;;14.40;53.00;;;;;;6241028;22;20079;-80
2023/04/19 12:11:02;;;;;;;4.47;1.63;;;14.40;53.20;;;;;;6241739;22;19996;-80
2023/04/19 12:13:30;;;;;;;3.55;2.10;;;14.40;51.80;;;;;;6241921;22;20000;-79
2023/04/19 12:15:55;;;;;;;4.28;2.38;;;14.40;51.80;;;;;;6243103;22;20023;-78
2023/04/19 12:18:21;;;;;;;2.05;1.77;;;14.40;51.90;;;;;;6240095;22;19996;-79
2023/04/19 12:20:50;;;;;;;3.13;1.50;;;14.40;52.40;;;;;;6243929;22;19997;-78
2023/04/19 12:23:18;;;;;;;6.07;2.28;;;14.40;52.80;;;;;;6243590;22;20000;-78
2023/04/19 12:25:46;;;;;;;3.08;2.00;;;14.40;53.10;;;;;;6243551;22;20334;-79
2023/04/19 12:28:12;;;;;;;3.28;2.03;;;14.50;53.20;;;;;;6243603;22;20000;-78
2023/04/19 12:30:39;;;;;;;4.57;1.88;;;14.50;52.30;;;;;;6242182;23;20004;-77
2023/04/19 12:33:06;;;;;;;2.47;1.88;;;14.60;52.50;;;;;;6242103;23;20017;-78
2023/04/19 12:35:32;;;;;;;6.28;2.35;;;14.60;53.10;;;;;;6243589;22;20527;-77
2023/04/19 12:37:58;;;;;;;2.75;1.90;;;14.60;52.40;;;;;;6243957;22;20004;-77